createdAt,value
2022-10-18T00:00:20.469Z,100.00
2022-10-18T00:02:51.073Z,100.00
2022-10-18T00:05:21.736Z,100.00
2022-10-18T00:07:52.106Z,100.00
2022-10-18T00:10:24.798Z,100.00
2022-10-18T00:12:55.831Z,100.00
2022-10-18T00:15:26.410Z,100.00
2022-10-18T00:17:56.944Z,100.00
2022-10-18T00:20:27.822Z,100.00
2022-10-18T00:22:58.273Z,100.00
2022-10-18T00:25:28.944Z,100.00
2022-10-18T00:27:59.286Z,100.00
2022-10-18T00:30:29.935Z,100.00
2022-10-18T00:33:00.404Z,100.00
2022-10-18T00:35:30.926Z,100.00
2022-10-18T00:38:01.292Z,100.00
2022-10-18T00:40:31.942Z,100.00
2022-10-18T00:43:02.417Z,100.00
2022-10-18T00:45:33.172Z,100.00
2022-10-18T00:48:05.566Z,100.00
2022-10-18T00:50:37.614Z,100.00
2022-10-18T00:53:17.426Z,100.00
2022-10-18T00:55:52.420Z,100.00
2022-10-18T00:58:23.285Z,100.00
2022-10-18T01:00:53.808Z,100.00
2022-10-18T01:03:24.378Z,100.00
2022-10-18T01:05:54.810Z,100.00
2022-10-18T01:09:01.983Z,100.00
2022-10-18T01:11:57.496Z,100.00
2022-10-18T01:14:54.166Z,100.00
2022-10-18T01:17:33.207Z,100.00
2022-10-18T01:20:28.477Z,100.00
2022-10-18T01:23:03.888Z,100.00
2022-10-18T01:25:43.427Z,100.00
2022-10-18T01:28:29.817Z,100.00
2022-10-18T01:31:02.754Z,100.00
2022-10-18T01:33:39.137Z,100.00
2022-10-18T01:36:16.515Z,100.00
2022-10-18T01:38:50.126Z,100.00
2022-10-18T01:41:25.064Z,100.00
2022-10-18T01:44:00.139Z,100.00
2022-10-18T01:46:31.403Z,100.00
2022-10-18T01:49:00.680Z,100.00
2022-10-18T01:51:34.167Z,100.00
2022-10-18T01:54:04.689Z,99.98
2022-10-18T01:56:44.205Z,99.99
2022-10-18T01:59:26.955Z,100.00
2022-10-18T02:02:04.125Z,100.00
2022-10-18T02:04:43.248Z,100.00
2022-10-18T02:07:24.748Z,100.00
2022-10-18T02:10:03.649Z,100.00
2022-10-18T02:12:35.973Z,100.00
2022-10-18T02:15:09.843Z,100.00
2022-10-18T02:17:41.977Z,100.00
2022-10-18T02:20:14.476Z,100.00
2022-10-18T02:22:46.125Z,100.00
2022-10-18T02:25:22.374Z,100.00
2022-10-18T02:27:53.604Z,100.00
2022-10-18T02:30:25.356Z,100.00
2022-10-18T02:33:02.231Z,100.00
2022-10-18T02:35:38.672Z,99.94
2022-10-18T02:38:11.024Z,99.85
2022-10-18T02:40:41.479Z,99.52
2022-10-18T02:43:11.825Z,98.43
2022-10-18T02:45:42.551Z,97.54
2022-10-18T02:48:13.216Z,96.46
2022-10-18T02:50:43.745Z,95.38
2022-10-18T02:53:14.211Z,94.09
2022-10-18T02:55:45.085Z,91.79
2022-10-18T02:58:15.577Z,90.80
2022-10-18T03:00:46.000Z,88.34
2022-10-18T03:03:16.465Z,86.48
2022-10-18T03:05:49.907Z,84.16
2022-10-18T03:08:22.657Z,82.78
2022-10-18T03:10:53.311Z,83.17
2022-10-18T03:13:23.813Z,83.00
2022-10-18T03:15:54.363Z,81.66
2022-10-18T03:18:24.865Z,80.99
2022-10-18T03:20:55.405Z,79.58
2022-10-18T03:23:25.936Z,80.40
2022-10-18T03:25:56.363Z,80.45
2022-10-18T03:28:26.869Z,80.68
2022-10-18T03:31:02.838Z,79.78
2022-10-18T03:33:34.237Z,78.64
2022-10-18T03:36:04.742Z,78.58
2022-10-18T03:38:35.204Z,78.49
2022-10-18T03:41:05.950Z,78.53
2022-10-18T03:43:36.558Z,78.20
2022-10-18T03:46:07.317Z,77.94
2022-10-18T03:48:37.760Z,78.38
2022-10-18T03:51:08.424Z,77.85
2022-10-18T03:53:40.046Z,77.80
2022-10-18T03:56:10.613Z,77.45
2022-10-18T03:58:41.216Z,79.21
2022-10-18T04:01:11.672Z,82.16
2022-10-18T04:03:42.242Z,83.66
2022-10-18T04:06:13.320Z,84.91
2022-10-18T04:08:43.835Z,85.72
2022-10-18T04:11:14.359Z,87.14
2022-10-18T04:13:44.947Z,88.40
2022-10-18T04:16:15.302Z,89.12
2022-10-18T04:18:45.812Z,90.23
2022-10-18T04:21:16.253Z,90.87
2022-10-18T04:23:47.990Z,91.60
2022-10-18T04:26:18.413Z,92.11
2022-10-18T04:28:49.054Z,92.80
2022-10-18T04:31:19.597Z,93.31
2022-10-18T04:33:50.112Z,93.84
2022-10-18T04:36:20.695Z,94.40
2022-10-18T04:38:51.423Z,94.85
2022-10-18T04:41:24.446Z,95.27
2022-10-18T04:43:55.077Z,95.76
2022-10-18T04:46:25.473Z,96.02
2022-10-18T04:48:56.058Z,96.44
2022-10-18T04:51:26.584Z,97.00
2022-10-18T04:53:57.571Z,97.28
2022-10-18T04:56:28.078Z,97.53
2022-10-18T04:58:59.094Z,97.92
2022-10-18T05:01:29.650Z,98.19
2022-10-18T05:04:00.347Z,98.47
2022-10-18T05:06:30.821Z,98.62
2022-10-18T05:09:01.521Z,98.96
2022-10-18T05:11:32.018Z,99.16
2022-10-18T05:14:02.565Z,99.43
2022-10-18T05:16:33.090Z,99.70
2022-10-18T05:19:04.472Z,99.97
2022-10-18T05:21:33.449Z,100.00
2022-10-18T05:24:07.210Z,100.00
2022-10-18T05:26:37.711Z,100.00
2022-10-18T05:29:08.238Z,100.00
2022-10-18T05:31:38.946Z,100.00
2022-10-18T05:34:09.443Z,100.00
2022-10-18T05:36:39.912Z,100.00
2022-10-18T05:39:10.275Z,100.00
2022-10-18T05:41:40.740Z,100.00
2022-10-18T05:44:11.428Z,100.00
2022-10-18T05:46:41.890Z,100.00
2022-10-18T05:49:14.639Z,100.00
2022-10-18T05:51:45.069Z,100.00
2022-10-18T05:54:16.649Z,100.00
2022-10-18T05:56:45.513Z,100.00
2022-10-18T05:59:15.984Z,100.00
2022-10-18T06:01:46.628Z,100.00
2022-10-18T06:04:17.913Z,100.00
2022-10-18T06:06:48.372Z,100.00
2022-10-18T06:09:18.754Z,100.00
2022-10-18T06:11:49.158Z,100.00
2022-10-18T06:14:19.572Z,100.00
2022-10-18T06:16:50.526Z,100.00
2022-10-18T06:19:21.245Z,100.00
2022-10-18T06:21:51.756Z,100.00
2022-10-18T06:24:22.485Z,100.00
2022-10-18T06:26:52.938Z,100.00
2022-10-18T06:29:23.531Z,100.00
2022-10-18T06:31:53.898Z,100.00
2022-10-18T06:34:24.393Z,100.00
2022-10-18T06:36:56.502Z,100.00
2022-10-18T06:39:29.024Z,100.00
2022-10-18T06:41:59.506Z,100.00
2022-10-18T06:44:29.956Z,100.00
2022-10-18T06:47:00.381Z,100.00
2022-10-18T06:49:31.109Z,100.00
2022-10-18T06:52:01.613Z,100.00
2022-10-18T06:54:32.030Z,100.00
2022-10-18T06:57:03.277Z,100.00
2022-10-18T06:59:33.836Z,100.00
2022-10-18T07:02:04.408Z,100.00
2022-10-18T07:04:35.004Z,100.00
2022-10-18T07:07:05.596Z,100.00
2022-10-18T07:09:36.066Z,100.00
2022-10-18T07:12:07.269Z,100.00
2022-10-18T07:14:36.139Z,100.00
2022-10-18T07:17:06.606Z,100.00
2022-10-18T07:19:37.021Z,100.00
2022-10-18T07:22:07.618Z,100.00
2022-10-18T07:24:39.906Z,100.00
2022-10-18T07:27:16.306Z,100.00
2022-10-18T07:29:46.802Z,100.00
2022-10-18T07:32:17.272Z,100.00
2022-10-18T07:34:47.918Z,100.00
2022-10-18T07:37:18.510Z,100.00
2022-10-18T07:39:48.988Z,100.00
2022-10-18T07:42:19.626Z,100.00
2022-10-18T07:44:50.663Z,100.00
2022-10-18T07:47:21.195Z,100.00
2022-10-18T07:49:51.826Z,100.00
2022-10-18T07:52:22.340Z,100.00
2022-10-18T07:54:55.777Z,100.00
2022-10-18T07:57:26.320Z,100.00
2022-10-18T07:59:57.630Z,100.00
2022-10-18T08:02:28.402Z,100.00
2022-10-18T08:04:58.816Z,100.00
2022-10-18T08:07:29.378Z,100.00
2022-10-18T08:10:00.033Z,100.00
2022-10-18T08:12:30.669Z,100.00
2022-10-18T08:15:01.347Z,100.00
2022-10-18T08:17:31.922Z,100.00
2022-10-18T08:20:12.192Z,100.00
2022-10-18T08:22:57.711Z,100.00
2022-10-18T08:25:30.550Z,100.00
2022-10-18T08:28:02.354Z,100.00
2022-10-18T08:30:32.827Z,100.00
2022-10-18T08:33:03.611Z,100.00
2022-10-18T08:35:34.448Z,100.00
2022-10-18T08:38:05.226Z,100.00
2022-10-18T08:40:36.328Z,100.00
2022-10-18T08:43:13.164Z,100.00
2022-10-18T08:45:44.838Z,100.00
2022-10-18T08:48:23.088Z,100.00
2022-10-18T08:50:57.376Z,100.00
2022-10-18T08:53:37.598Z,100.00
2022-10-18T08:56:15.035Z,100.00
2022-10-18T08:58:46.596Z,100.00
2022-10-18T09:01:28.440Z,100.00
2022-10-18T09:04:24.572Z,100.00
2022-10-18T09:07:07.862Z,100.00
2022-10-18T09:09:47.580Z,100.00
2022-10-18T09:12:36.399Z,100.00
2022-10-18T09:15:17.688Z,100.00
2022-10-18T09:18:07.928Z,100.00
2022-10-18T09:20:48.945Z,100.00
2022-10-18T09:23:23.588Z,100.00
2022-10-18T09:26:01.431Z,100.00
2022-10-18T09:28:47.257Z,100.00
2022-10-18T09:31:22.707Z,100.00
2022-10-18T09:33:58.859Z,100.00
2022-10-18T09:36:35.474Z,100.00
2022-10-18T09:39:12.062Z,100.00
2022-10-18T09:41:49.038Z,100.00
2022-10-18T09:44:23.143Z,100.00
2022-10-18T09:46:58.765Z,100.00
2022-10-18T09:49:33.038Z,100.00
2022-10-18T09:52:09.157Z,100.00
2022-10-18T09:54:45.113Z,100.00
2022-10-18T09:57:20.524Z,100.00
2022-10-18T09:59:52.189Z,100.00
2022-10-18T10:02:24.545Z,100.00
2022-10-18T10:04:56.495Z,100.00
2022-10-18T10:07:42.971Z,100.00
2022-10-18T10:10:18.638Z,100.00
2022-10-18T10:12:49.813Z,99.95
2022-10-18T10:15:21.075Z,99.11
2022-10-18T10:18:01.423Z,98.42
2022-10-18T10:20:38.014Z,96.29
2022-10-18T10:23:21.004Z,96.97
2022-10-18T10:25:55.445Z,98.04
2022-10-18T10:28:30.706Z,97.81
2022-10-18T10:31:20.067Z,98.15
2022-10-18T10:33:58.956Z,98.15
2022-10-18T10:36:30.462Z,96.49
2022-10-18T10:39:11.857Z,96.82
2022-10-18T10:41:43.085Z,96.47
2022-10-18T10:44:19.412Z,98.07
2022-10-18T10:46:52.037Z,97.66
2022-10-18T10:49:39.772Z,98.33
2022-10-18T10:52:27.661Z,99.17
2022-10-18T10:55:06.176Z,97.67
2022-10-18T10:57:50.193Z,97.09
2022-10-18T11:00:42.688Z,97.08
2022-10-18T11:03:28.366Z,96.20
2022-10-18T11:06:01.083Z,94.62
2022-10-18T11:08:40.062Z,94.04
2022-10-18T11:11:22.136Z,94.76
2022-10-18T11:14:24.732Z,94.61
2022-10-18T11:17:03.050Z,93.67
2022-10-18T11:19:46.208Z,93.83
2022-10-18T11:22:21.964Z,93.19
2022-10-18T11:24:52.547Z,93.74
2022-10-18T11:27:30.093Z,93.31
2022-10-18T11:30:23.657Z,91.67
2022-10-18T11:33:07.172Z,92.42
2022-10-18T11:35:47.204Z,92.97
2022-10-18T11:38:32.447Z,93.60
2022-10-18T11:41:27.847Z,94.62
2022-10-18T11:44:02.940Z,95.33
2022-10-18T11:46:47.257Z,95.61
2022-10-18T11:49:38.565Z,96.41
2022-10-18T11:52:14.820Z,97.56
2022-10-18T11:54:59.788Z,98.54
2022-10-18T11:57:47.643Z,98.84
2022-10-18T12:00:39.321Z,99.76
2022-10-18T12:03:25.251Z,100.00
2022-10-18T12:05:58.982Z,100.00
2022-10-18T12:08:34.630Z,100.00
2022-10-18T12:11:14.002Z,100.00
2022-10-18T12:13:49.265Z,100.00
2022-10-18T12:16:50.094Z,100.00
2022-10-18T12:19:26.749Z,100.00
2022-10-18T12:22:03.693Z,100.00
2022-10-18T12:24:35.438Z,100.00
2022-10-18T12:27:06.190Z,100.00
2022-10-18T12:29:45.441Z,100.00
2022-10-18T12:32:23.619Z,100.00
2022-10-18T12:34:58.638Z,100.00
2022-10-18T12:37:51.735Z,100.00
2022-10-18T12:40:25.723Z,100.00
2022-10-18T12:42:57.830Z,100.00
2022-10-18T12:45:33.112Z,100.00
2022-10-18T12:48:06.842Z,100.00
2022-10-18T12:50:40.460Z,100.00
2022-10-18T12:53:21.167Z,100.00
2022-10-18T12:55:53.803Z,100.00
2022-10-18T12:58:30.973Z,100.00
2022-10-18T13:01:07.075Z,100.00
2022-10-18T13:04:03.725Z,100.00
2022-10-18T13:07:07.943Z,100.00
2022-10-18T13:09:40.362Z,100.00
2022-10-18T13:12:50.954Z,100.00
2022-10-18T13:15:39.615Z,100.00
2022-10-18T13:18:24.134Z,100.00
2022-10-18T13:21:09.730Z,100.00
2022-10-18T13:23:49.764Z,100.00
2022-10-18T13:26:31.819Z,100.00
2022-10-18T13:29:10.613Z,100.00
2022-10-18T13:31:48.372Z,100.00
2022-10-18T13:34:29.048Z,100.00
2022-10-18T13:37:03.157Z,100.00
2022-10-18T13:39:36.783Z,100.00
2022-10-18T13:42:33.063Z,100.00
2022-10-18T13:45:38.627Z,100.00
2022-10-18T13:48:44.095Z,100.00
2022-10-18T13:51:38.601Z,100.00
2022-10-18T13:54:24.618Z,100.00
2022-10-18T13:57:13.057Z,100.00
2022-10-18T14:00:01.667Z,100.00
2022-10-18T14:03:02.748Z,100.00
2022-10-18T14:05:53.103Z,100.00
2022-10-18T14:08:30.728Z,100.00
2022-10-18T14:11:08.948Z,100.00
2022-10-18T14:13:48.377Z,100.00
2022-10-18T14:16:32.917Z,100.00
2022-10-18T14:19:14.890Z,100.00
2022-10-18T14:21:53.867Z,100.00
2022-10-18T14:24:27.692Z,100.00
2022-10-18T14:27:17.952Z,100.00
2022-10-18T14:29:49.580Z,100.00
2022-10-18T14:32:29.445Z,100.00
2022-10-18T14:35:31.701Z,100.00
2022-10-18T14:37:52.278Z,100.00
2022-10-18T14:40:35.504Z,100.00
2022-10-18T14:43:08.035Z,100.00
2022-10-18T14:45:38.836Z,100.00
2022-10-18T14:48:16.763Z,100.00
2022-10-18T14:50:51.813Z,100.00
2022-10-18T14:53:25.039Z,100.00
2022-10-18T14:56:02.585Z,100.00
2022-10-18T14:58:35.626Z,100.00
2022-10-18T15:01:06.977Z,100.00
2022-10-18T15:03:38.344Z,100.00
2022-10-18T15:06:09.802Z,100.00
2022-10-18T15:08:42.364Z,100.00
2022-10-18T15:11:15.055Z,100.00
2022-10-18T15:13:51.600Z,100.00
2022-10-18T15:16:25.318Z,100.00
2022-10-18T15:19:09.031Z,100.00
2022-10-18T15:21:39.392Z,100.00
2022-10-18T15:24:31.227Z,100.00
2022-10-18T15:27:09.818Z,100.00
2022-10-18T15:29:43.154Z,100.00
2022-10-18T15:32:25.889Z,100.00
2022-10-18T15:35:07.205Z,100.00
2022-10-18T15:37:38.457Z,100.00
2022-10-18T15:40:33.547Z,100.00
2022-10-18T15:43:06.631Z,100.00
2022-10-18T15:48:25.248Z,100.00
2022-10-18T15:50:57.489Z,100.00
2022-10-18T15:53:36.415Z,100.00
2022-10-18T15:56:10.793Z,100.00
2022-10-18T15:58:44.993Z,100.00
2022-10-18T16:01:21.451Z,100.00
2022-10-18T16:03:52.602Z,100.00
2022-10-18T16:06:22.940Z,100.00
2022-10-18T16:08:54.638Z,100.00
2022-10-18T16:11:26.699Z,100.00
2022-10-18T16:13:59.619Z,100.00
2022-10-18T16:16:31.534Z,100.00
2022-10-18T16:19:02.171Z,100.00
2022-10-18T16:21:34.709Z,100.00
2022-10-18T16:24:05.960Z,100.00
2022-10-18T16:26:34.874Z,100.00
2022-10-18T16:29:07.137Z,100.00
2022-10-18T16:31:37.724Z,100.00
2022-10-18T16:34:10.848Z,100.00
2022-10-18T16:36:42.086Z,100.00
2022-10-18T16:39:14.945Z,100.00
2022-10-18T16:41:45.936Z,100.00
2022-10-18T16:44:18.661Z,100.00
2022-10-18T16:46:52.398Z,100.00
2022-10-18T16:49:26.647Z,100.00
2022-10-18T16:51:57.362Z,100.00
2022-10-18T16:54:28.000Z,100.00
2022-10-18T16:56:58.369Z,100.00
2022-10-18T16:59:31.404Z,100.00
2022-10-18T17:02:05.681Z,100.00
2022-10-18T17:04:36.075Z,100.00
2022-10-18T17:07:06.416Z,100.00
2022-10-18T17:09:36.996Z,100.00
2022-10-18T17:12:07.905Z,100.00
2022-10-18T17:14:38.352Z,100.00
2022-10-18T17:17:12.396Z,100.00
2022-10-18T17:19:42.805Z,100.00
2022-10-18T17:22:13.260Z,100.00
2022-10-18T17:24:43.650Z,100.00
2022-10-18T17:27:14.074Z,100.00
2022-10-18T17:29:44.368Z,100.00
2022-10-18T17:32:14.944Z,100.00
2022-10-18T17:34:45.250Z,100.00
2022-10-18T17:37:15.518Z,100.00
2022-10-18T17:39:45.918Z,100.00
2022-10-18T17:42:16.445Z,100.00
2022-10-18T17:44:46.979Z,100.00
2022-10-18T17:47:17.355Z,100.00
2022-10-18T17:49:47.838Z,100.00
2022-10-18T17:52:18.219Z,100.00
2022-10-18T17:54:48.456Z,100.00
2022-10-18T17:57:18.945Z,100.00
2022-10-18T17:59:50.825Z,100.00
2022-10-18T18:02:21.241Z,100.00
2022-10-18T18:04:51.646Z,100.00
2022-10-18T18:07:22.053Z,100.00
2022-10-18T18:09:52.437Z,100.00
2022-10-18T18:12:22.768Z,100.00
2022-10-18T18:14:53.235Z,100.00
2022-10-18T18:17:33.687Z,100.00
2022-10-18T18:20:03.584Z,100.00
2022-10-18T18:22:37.029Z,100.00
2022-10-18T18:25:11.436Z,100.00
2022-10-18T18:27:41.815Z,100.00
2022-10-18T18:30:14.395Z,100.00
2022-10-18T18:32:44.773Z,100.00
2022-10-18T18:35:15.062Z,100.00
2022-10-18T18:37:45.498Z,100.00
2022-10-18T18:40:15.875Z,100.00
2022-10-18T18:43:01.627Z,100.00
2022-10-18T18:45:37.067Z,100.00
2022-10-18T18:48:08.050Z,100.00
2022-10-18T18:50:38.781Z,100.00
2022-10-18T18:53:09.142Z,100.00
2022-10-18T18:55:42.056Z,100.00
2022-10-18T18:58:12.977Z,100.00
2022-10-18T19:00:44.620Z,100.00
2022-10-18T19:03:15.361Z,100.00
2022-10-18T19:05:45.780Z,100.00
2022-10-18T19:08:16.120Z,100.00
2022-10-18T19:10:49.126Z,100.00
2022-10-18T19:13:20.620Z,100.00
2022-10-18T19:15:51.091Z,100.00
2022-10-18T19:18:23.923Z,100.00
2022-10-18T19:20:54.598Z,100.00
2022-10-18T19:25:56.466Z,100.00
2022-10-18T19:28:26.894Z,100.00
2022-10-18T19:30:58.270Z,100.00
2022-10-18T19:33:41.331Z,100.00
2022-10-18T19:36:19.336Z,100.00
2022-10-18T19:38:49.955Z,100.00
2022-10-18T19:41:20.388Z,100.00
2022-10-18T19:43:50.983Z,100.00
2022-10-18T19:46:21.544Z,100.00
2022-10-18T19:48:54.049Z,100.00
2022-10-18T19:51:27.839Z,100.00
2022-10-18T19:53:59.153Z,100.00
2022-10-18T19:56:31.085Z,100.00
2022-10-18T19:59:02.376Z,100.00
2022-10-18T20:01:33.302Z,100.00
2022-10-18T20:04:04.652Z,100.00
2022-10-18T20:06:34.075Z,100.00
2022-10-18T20:09:04.968Z,100.00
2022-10-18T20:11:36.042Z,100.00
2022-10-18T20:14:07.007Z,100.00
2022-10-18T20:16:37.599Z,100.00
2022-10-18T20:19:09.493Z,100.00
2022-10-18T20:21:40.207Z,100.00
2022-10-18T20:24:11.822Z,100.00
2022-10-18T20:26:43.739Z,100.00
2022-10-18T20:29:15.054Z,100.00
2022-10-18T20:31:45.707Z,100.00
2022-10-18T20:34:16.200Z,100.00
2022-10-18T20:36:46.673Z,100.00
2022-10-18T20:39:17.233Z,100.00
2022-10-18T20:41:47.705Z,100.00
2022-10-18T20:44:21.001Z,100.00
2022-10-18T20:46:51.395Z,100.00
2022-10-18T20:49:21.810Z,100.00
2022-10-18T20:51:52.115Z,100.00
2022-10-18T20:54:22.804Z,100.00
2022-10-18T20:56:53.194Z,100.00
2022-10-18T20:59:23.625Z,100.00
2022-10-18T21:01:54.205Z,100.00
2022-10-18T21:04:24.598Z,100.00
2022-10-18T21:06:55.082Z,100.00
2022-10-18T21:09:25.564Z,100.00
2022-10-18T21:11:56.400Z,100.00
2022-10-18T21:14:27.382Z,100.00
2022-10-18T21:16:57.743Z,100.00
2022-10-18T21:19:29.240Z,100.00
2022-10-18T21:22:00.034Z,100.00
2022-10-18T21:24:30.998Z,100.00
2022-10-18T21:27:01.407Z,100.00
2022-10-18T21:29:31.947Z,100.00
2022-10-18T21:32:02.924Z,100.00
2022-10-18T21:34:33.658Z,100.00
2022-10-18T21:37:04.462Z,100.00
2022-10-18T21:39:35.139Z,100.00
2022-10-18T21:42:06.051Z,100.00
2022-10-18T21:44:36.923Z,100.00
2022-10-18T21:47:07.352Z,100.00
2022-10-18T21:49:37.676Z,100.00
2022-10-18T21:52:08.168Z,100.00
2022-10-18T21:54:38.568Z,100.00
2022-10-18T21:57:08.943Z,100.00
2022-10-18T21:59:39.418Z,100.00
2022-10-18T22:02:09.815Z,100.00
2022-10-18T22:04:43.022Z,100.00
2022-10-18T22:07:13.394Z,100.00
2022-10-18T22:09:43.689Z,100.00
2022-10-18T22:12:14.065Z,100.00
2022-10-18T22:14:44.413Z,100.00
2022-10-18T22:17:15.238Z,100.00
2022-10-18T22:19:47.273Z,100.00
2022-10-18T22:22:17.650Z,100.00
2022-10-18T22:24:49.089Z,100.00
2022-10-18T22:27:19.542Z,100.00
2022-10-18T22:29:49.976Z,100.00
2022-10-18T22:32:20.311Z,100.00
2022-10-18T22:34:50.644Z,100.00
2022-10-18T22:37:21.016Z,100.00
2022-10-18T22:39:51.381Z,100.00
2022-10-18T22:42:21.859Z,100.00
2022-10-18T22:44:52.294Z,100.00
2022-10-18T22:47:24.231Z,100.00
2022-10-18T22:49:54.638Z,100.00
2022-10-18T22:52:25.153Z,100.00
2022-10-18T22:54:55.518Z,100.00
2022-10-18T22:57:25.942Z,100.00
2022-10-18T22:59:56.589Z,100.00
2022-10-18T23:02:27.106Z,100.00
2022-10-18T23:04:57.593Z,100.00
2022-10-18T23:07:27.884Z,100.00
2022-10-18T23:09:59.050Z,100.00
2022-10-18T23:12:29.977Z,100.00
2022-10-18T23:15:00.560Z,100.00
2022-10-18T23:17:31.443Z,100.00
2022-10-18T23:20:00.698Z,100.00
2022-10-18T23:22:31.391Z,100.00
2022-10-18T23:25:02.058Z,100.00
2022-10-18T23:27:32.571Z,100.00
2022-10-18T23:30:03.616Z,100.00
2022-10-18T23:32:34.589Z,100.00
2022-10-18T23:35:05.801Z,100.00
2022-10-18T23:37:36.583Z,100.00
2022-10-18T23:40:09.295Z,100.00
2022-10-18T23:42:39.729Z,100.00
2022-10-18T23:45:12.027Z,100.00
2022-10-18T23:47:42.470Z,100.00
2022-10-18T23:50:13.045Z,100.00
2022-10-18T23:52:43.654Z,100.00
2022-10-18T23:55:14.036Z,100.00
2022-10-18T23:57:44.426Z,100.00
